F/V Oceanie — FVBW — position and weather

sailwx.info

Track history (hours):
 
Tides and Currents Weather Stations Pressure Air Temp Water Temp Dewpoint Dewpoint Depression Visibility Wind Speed Wind Dir Waves Ship Positions

F/V Oceanie

Last reported at 2017-Sep-21 09:42 UTC. Time now 2017-Sep-25 02:52 UTC.
Position N 47°44' W 003°22'.

Length 16 m.

Type: Fishing. MMSI: 228370000.

Date/timePositionNaut miles runAvg speedWind from/ knotsBaromVisibWave heightAir tempDewpointWater temp
2017-Sep-21 09:42N 47°44' W 003°22'0 0.0
2017-Sep-21 09:30N 47°44' W 003°22'0 0.0
2017-Sep-21 08:45N 47°44' W 003°22'0 0.0
2017-Sep-21 06:50N 47°44' W 003°22'0 0.9
2017-Sep-21 06:30N 47°44' W 003°22'0 0.0
2017-Sep-19 09:50N 47°44' W 003°22'0 0.0
2017-Sep-19 09:30N 47°44' W 003°22'0 0.0
2017-Sep-19 09:01N 47°44' W 003°22'0 0.0
2017-Sep-19 08:31N 47°44' W 003°22'0 0.0
2017-Sep-19 08:01N 47°44' W 003°22'0 0.0
2017-Sep-19 07:31N 47°44' W 003°22'0 0.0
2017-Sep-18 15:07N 47°44' W 003°22'0 0.0
2017-Sep-18 15:00N 47°44' W 003°22'0 0.0
2017-Sep-18 14:30N 47°44' W 003°22'0 0.0
2017-Sep-18 14:00N 47°44' W 003°22'0 0.1
2017-Sep-18 12:50N 47°44' W 003°22'0 0.0
2017-Sep-18 12:30N 47°44' W 003°22'0 0.0
2017-Sep-18 09:58N 47°44' W 003°22'0 0.0
2017-Sep-18 09:30N 47°44' W 003°22'  
2017-Sep-16 00:25N 47°44' W 003°22'0 0.0
2017-Sep-16 00:00N 47°44' W 003°22'0 0.0
2017-Sep-15 23:30N 47°44' W 003°22'0 0.5
2017-Sep-15 23:00N 47°43' W 003°22'4 8.4
2017-Sep-15 22:31N 47°41' W 003°26'5 9.2
2017-Sep-15 22:00N 47°39' W 003°33'4 8.7
2017-Sep-15 21:30N 47°37' W 003°38'4 8.4
2017-Sep-15 21:00N 47°34' W 003°43'4 8.3
2017-Sep-15 20:31N 47°32' W 003°48'3 4.9
2017-Sep-15 19:59N 47°31' W 003°52'7 1.4
2017-Sep-15 15:26N 47°34' W 004°00'2 3.8
2017-Sep-15 14:59N 47°33' W 003°58'3 3.5
2017-Sep-15 14:12N 47°31' W 003°55'1 3.8
2017-Sep-15 13:56N 47°31' W 003°54'2 3.8
2017-Sep-15 13:30N 47°30' W 003°52'2 3.9
2017-Sep-15 13:00N 47°32' W 003°53'2 4.4
2017-Sep-15 12:30N 47°32' W 003°57'4 1.8
2017-Sep-15 10:26N 47°32' W 004°02'2 0.4
2017-Sep-15 04:56N 47°34' W 004°01'2 4.0
2017-Sep-15 04:30N 47°34' W 003°58'2 3.5
2017-Sep-15 04:00N 47°33' W 003°56'2 4.0
2017-Sep-15 03:30N 47°34' W 003°53'3 5.5
2017-Sep-15 03:00N 47°35' W 003°50'4 8.1
2017-Sep-15 02:30N 47°36' W 003°44'4 8.3
2017-Sep-15 02:00N 47°38' W 003°38'4 8.2
2017-Sep-15 01:30N 47°39' W 003°33'4 8.5
2017-Sep-15 01:01N 47°41' W 003°27'4 8.2
2017-Sep-15 00:30N 47°43' W 003°22'1 1.1
2017-Sep-15 00:00N 47°44' W 003°22'0 0.0
2017-Sep-14 23:30N 47°44' W 003°22'0 0.2
2017-Sep-14 23:00N 47°44' W 003°22'3 6.3
2017-Sep-14 22:30N 47°41' W 003°24'5 9.5
2017-Sep-14 22:00N 47°40' W 003°31'5 9.3
2017-Sep-14 21:30N 47°37' W 003°37'5 9.4
2017-Sep-14 21:01N 47°35' W 003°43'4 8.9
2017-Sep-14 20:30N 47°33' W 003°49'3 6.0
2017-Sep-14 20:01N 47°32' W 003°53'2 4.0
2017-Sep-14 19:30N 47°33' W 003°56'3 0.5
2017-Sep-14 13:07N 47°33' W 004°01'1 3.9
2017-Sep-14 12:59N 47°33' W 003°60'2 3.7
2017-Sep-14 12:31N 47°32' W 003°58'1 2.5
2017-Sep-14 12:00N 47°32' W 003°56'2 3.8
2017-Sep-14 11:29N 47°33' W 003°58'2 1.2
2017-Sep-14 09:30N 47°32' W 004°01'5 3.0
2017-Sep-14 07:40N 47°27' W 003°56'1 3.4
2017-Sep-14 07:25N 47°27' W 003°55'2 3.3
2017-Sep-14 06:44N 47°26' W 003°53'2 3.4
2017-Sep-14 06:02N 47°23' W 003°52'1 3.5
2017-Sep-14 05:51N 47°23' W 003°51'1 3.1
2017-Sep-14 05:26N 47°22' W 003°49'1 3.1
2017-Sep-14 05:00N 47°22' W 003°47'1 2.0
2017-Sep-14 04:30N 47°22' W 003°46'2 3.1
2017-Sep-14 03:59N 47°21' W 003°44'2 3.3
2017-Sep-14 03:29N 47°20' W 003°42'2 3.4
2017-Sep-14 03:00N 47°19' W 003°41'1 3.0
2017-Sep-14 02:30N 47°19' W 003°39'2 3.2
2017-Sep-14 02:01N 47°19' W 003°36'3 3.3
2017-Sep-14 01:03N 47°16' W 003°36'1 4.3
2017-Sep-14 00:53N 47°15' W 003°36'1 2.7
2017-Sep-14 00:28N 47°15' W 003°34'1 2.9
2017-Sep-13 23:59N 47°13' W 003°34'2 3.4
2017-Sep-13 23:29N 47°12' W 003°32'2 3.2
2017-Sep-13 22:46N 47°12' W 003°29'1 3.7
2017-Sep-13 22:30N 47°11' W 003°30'2 3.7
2017-Sep-13 22:00N 47°12' W 003°32'2 4.0
2017-Sep-13 21:30N 47°13' W 003°34'1 2.2
2017-Sep-13 21:00N 47°14' W 003°35'1 2.5
2017-Sep-13 20:31N 47°13' W 003°35'8 0.8
2017-Sep-13 11:29N 47°07' W 003°27'3 0.4
2017-Sep-13 05:24N 47°10' W 003°28'3 8.1
2017-Sep-13 05:00N 47°13' W 003°27'4 8.4
2017-Sep-13 04:30N 47°17' W 003°26'4 8.3
2017-Sep-13 04:00N 47°21' W 003°25'4 8.2
2017-Sep-13 03:30N 47°25' W 003°25'4 8.3
2017-Sep-13 03:01N 47°29' W 003°24'4 8.3
2017-Sep-13 02:30N 47°33' W 003°23'4 8.3
2017-Sep-13 02:01N 47°38' W 003°22'4 8.8
2017-Sep-13 01:31N 47°42' W 003°22'2 3.6
2017-Sep-13 01:01N 47°44' W 003°22'0 0.0
2017-Sep-13 00:31N 47°44' W 003°22'2 3.1
2017-Sep-13 00:01N 47°42' W 003°22'4 8.7
2017-Sep-12 23:31N 47°38' W 003°22'4 8.5
2017-Sep-12 23:00N 47°34' W 003°23'4 8.3
2017-Sep-12 22:30N 47°29' W 003°24'4 8.4
2017-Sep-12 22:01N 47°25' W 003°24'4 8.3
2017-Sep-12 21:31N 47°21' W 003°24'4 8.4
2017-Sep-12 21:01N 47°17' W 003°24'11 1.8
2017-Sep-12 15:15N 47°07' W 003°27'1 3.9
2017-Sep-12 15:00N 47°07' W 003°27'1 0.1
2017-Sep-12 09:37N 47°07' W 003°28'1 3.7
2017-Sep-12 09:21N 47°08' W 003°27'3 0.7
2017-Sep-12 05:36N 47°05' W 003°27'1 4.1
2017-Sep-12 05:25N 47°06' W 003°27'2 4.0
2017-Sep-12 05:00N 47°08' W 003°27'3 2.2
2017-Sep-12 03:49N 47°07' W 003°24'1 1.5
2017-Sep-12 03:28N 47°07' W 003°23'7 0.9
2017-Sep-11 19:47N 47°10' W 003°33'2 5.3
2017-Sep-11 19:22N 47°12' W 003°33'1 3.6
2017-Sep-11 18:59N 47°13' W 003°34'0 0.3
2017-Sep-11 18:07N 47°13' W 003°34'0 3.1
2017-Sep-11 17:58N 47°13' W 003°34'2 3.0
2017-Sep-11 17:21N 47°12' W 003°32'  
Track history (hours):
 
Tides and Currents Weather Stations Pressure Air Temp Water Temp Dewpoint Dewpoint Depression Visibility Wind Speed Wind Dir Waves Ship Positions

F/V Oceanie

Last reported at 2017-Sep-21 09:42 UTC. Time now 2017-Sep-25 02:52 UTC.
Position N 47°44' W 003°22'.

Length 16 m.

Type: Fishing. MMSI: 228370000.

Date/timePositionNaut miles runAvg speedWind from/ knotsBaromVisibWave heightAir tempDewpointWater temp
2017-Sep-21 09:42N 47°44' W 003°22'0 0.0
2017-Sep-21 09:30N 47°44' W 003°22'0 0.0
2017-Sep-21 08:45N 47°44' W 003°22'0 0.0
2017-Sep-21 06:50N 47°44' W 003°22'0 0.9
2017-Sep-21 06:30N 47°44' W 003°22'0 0.0
2017-Sep-19 09:50N 47°44' W 003°22'0 0.0
2017-Sep-19 09:30N 47°44' W 003°22'0 0.0
2017-Sep-19 09:01N 47°44' W 003°22'0 0.0
2017-Sep-19 08:31N 47°44' W 003°22'0 0.0
2017-Sep-19 08:01N 47°44' W 003°22'0 0.0
2017-Sep-19 07:31N 47°44' W 003°22'0 0.0
2017-Sep-18 15:07N 47°44' W 003°22'0 0.0
2017-Sep-18 15:00N 47°44' W 003°22'0 0.0
2017-Sep-18 14:30N 47°44' W 003°22'0 0.0
2017-Sep-18 14:00N 47°44' W 003°22'0 0.1
2017-Sep-18 12:50N 47°44' W 003°22'0 0.0
2017-Sep-18 12:30N 47°44' W 003°22'0 0.0
2017-Sep-18 09:58N 47°44' W 003°22'0 0.0
2017-Sep-18 09:30N 47°44' W 003°22'  
2017-Sep-16 00:25N 47°44' W 003°22'0 0.0
2017-Sep-16 00:00N 47°44' W 003°22'0 0.0
2017-Sep-15 23:30N 47°44' W 003°22'0 0.5
2017-Sep-15 23:00N 47°43' W 003°22'4 8.4
2017-Sep-15 22:31N 47°41' W 003°26'5 9.2
2017-Sep-15 22:00N 47°39' W 003°33'4 8.7
2017-Sep-15 21:30N 47°37' W 003°38'4 8.4
2017-Sep-15 21:00N 47°34' W 003°43'4 8.3
2017-Sep-15 20:31N 47°32' W 003°48'3 4.9
2017-Sep-15 19:59N 47°31' W 003°52'7 1.4
2017-Sep-15 15:26N 47°34' W 004°00'2 3.8
2017-Sep-15 14:59N 47°33' W 003°58'3 3.5
2017-Sep-15 14:12N 47°31' W 003°55'1 3.8
2017-Sep-15 13:56N 47°31' W 003°54'2 3.8
2017-Sep-15 13:30N 47°30' W 003°52'2 3.9
2017-Sep-15 13:00N 47°32' W 003°53'2 4.4
2017-Sep-15 12:30N 47°32' W 003°57'4 1.8
2017-Sep-15 10:26N 47°32' W 004°02'2 0.4
2017-Sep-15 04:56N 47°34' W 004°01'2 4.0
2017-Sep-15 04:30N 47°34' W 003°58'2 3.5
2017-Sep-15 04:00N 47°33' W 003°56'2 4.0
2017-Sep-15 03:30N 47°34' W 003°53'3 5.5
2017-Sep-15 03:00N 47°35' W 003°50'4 8.1
2017-Sep-15 02:30N 47°36' W 003°44'4 8.3
2017-Sep-15 02:00N 47°38' W 003°38'4 8.2
2017-Sep-15 01:30N 47°39' W 003°33'4 8.5
2017-Sep-15 01:01N 47°41' W 003°27'4 8.2
2017-Sep-15 00:30N 47°43' W 003°22'1 1.1
2017-Sep-15 00:00N 47°44' W 003°22'0 0.0
2017-Sep-14 23:30N 47°44' W 003°22'0 0.2
2017-Sep-14 23:00N 47°44' W 003°22'3 6.3
2017-Sep-14 22:30N 47°41' W 003°24'5 9.5
2017-Sep-14 22:00N 47°40' W 003°31'5 9.3
2017-Sep-14 21:30N 47°37' W 003°37'5 9.4
2017-Sep-14 21:01N 47°35' W 003°43'4 8.9
2017-Sep-14 20:30N 47°33' W 003°49'3 6.0
2017-Sep-14 20:01N 47°32' W 003°53'2 4.0
2017-Sep-14 19:30N 47°33' W 003°56'3 0.5
2017-Sep-14 13:07N 47°33' W 004°01'1 3.9
2017-Sep-14 12:59N 47°33' W 003°60'2 3.7
2017-Sep-14 12:31N 47°32' W 003°58'1 2.5
2017-Sep-14 12:00N 47°32' W 003°56'2 3.8
2017-Sep-14 11:29N 47°33' W 003°58'2 1.2
2017-Sep-14 09:30N 47°32' W 004°01'5 3.0
2017-Sep-14 07:40N 47°27' W 003°56'1 3.4
2017-Sep-14 07:25N 47°27' W 003°55'2 3.3
2017-Sep-14 06:44N 47°26' W 003°53'2 3.4
2017-Sep-14 06:02N 47°23' W 003°52'1 3.5
2017-Sep-14 05:51N 47°23' W 003°51'1 3.1
2017-Sep-14 05:26N 47°22' W 003°49'1 3.1
2017-Sep-14 05:00N 47°22' W 003°47'1 2.0
2017-Sep-14 04:30N 47°22' W 003°46'2 3.1
2017-Sep-14 03:59N 47°21' W 003°44'2 3.3
2017-Sep-14 03:29N 47°20' W 003°42'2 3.4
2017-Sep-14 03:00N 47°19' W 003°41'1 3.0
2017-Sep-14 02:30N 47°19' W 003°39'2 3.2
2017-Sep-14 02:01N 47°19' W 003°36'3 3.3
2017-Sep-14 01:03N 47°16' W 003°36'1 4.3
2017-Sep-14 00:53N 47°15' W 003°36'1 2.7
2017-Sep-14 00:28N 47°15' W 003°34'1 2.9
2017-Sep-13 23:59N 47°13' W 003°34'2 3.4
2017-Sep-13 23:29N 47°12' W 003°32'2 3.2
2017-Sep-13 22:46N 47°12' W 003°29'1 3.7
2017-Sep-13 22:30N 47°11' W 003°30'2 3.7
2017-Sep-13 22:00N 47°12' W 003°32'2 4.0
2017-Sep-13 21:30N 47°13' W 003°34'1 2.2
2017-Sep-13 21:00N 47°14' W 003°35'1 2.5
2017-Sep-13 20:31N 47°13' W 003°35'8 0.8
2017-Sep-13 11:29N 47°07' W 003°27'3 0.4
2017-Sep-13 05:24N 47°10' W 003°28'3 8.1
2017-Sep-13 05:00N 47°13' W 003°27'4 8.4
2017-Sep-13 04:30N 47°17' W 003°26'4 8.3
2017-Sep-13 04:00N 47°21' W 003°25'4 8.2
2017-Sep-13 03:30N 47°25' W 003°25'4 8.3
2017-Sep-13 03:01N 47°29' W 003°24'4 8.3
2017-Sep-13 02:30N 47°33' W 003°23'4 8.3
2017-Sep-13 02:01N 47°38' W 003°22'4 8.8
2017-Sep-13 01:31N 47°42' W 003°22'2 3.6
2017-Sep-13 01:01N 47°44' W 003°22'0 0.0
2017-Sep-13 00:31N 47°44' W 003°22'2 3.1
2017-Sep-13 00:01N 47°42' W 003°22'4 8.7
2017-Sep-12 23:31N 47°38' W 003°22'4 8.5
2017-Sep-12 23:00N 47°34' W 003°23'4 8.3
2017-Sep-12 22:30N 47°29' W 003°24'4 8.4
2017-Sep-12 22:01N 47°25' W 003°24'4 8.3
2017-Sep-12 21:31N 47°21' W 003°24'4 8.4
2017-Sep-12 21:01N 47°17' W 003°24'11 1.8
2017-Sep-12 15:15N 47°07' W 003°27'1 3.9
2017-Sep-12 15:00N 47°07' W 003°27'1 0.1
2017-Sep-12 09:37N 47°07' W 003°28'1 3.7
2017-Sep-12 09:21N 47°08' W 003°27'3 0.7
2017-Sep-12 05:36N 47°05' W 003°27'1 4.1
2017-Sep-12 05:25N 47°06' W 003°27'2 4.0
2017-Sep-12 05:00N 47°08' W 003°27'3 2.2
2017-Sep-12 03:49N 47°07' W 003°24'1 1.5
2017-Sep-12 03:28N 47°07' W 003°23'7 0.9
2017-Sep-11 19:47N 47°10' W 003°33'2 5.3
2017-Sep-11 19:22N 47°12' W 003°33'1 3.6
2017-Sep-11 18:59N 47°13' W 003°34'0 0.3
2017-Sep-11 18:07N 47°13' W 003°34'0 3.1
2017-Sep-11 17:58N 47°13' W 003°34'2 3.0
2017-Sep-11 17:21N 47°12' W 003°32'  

Dump ship's entire track history